createdAt,value
2018-05-02T00:00:10.935Z,1.97
2018-05-02T00:02:38.378Z,1.93
2018-05-02T00:05:05.835Z,1.90
2018-05-02T00:07:33.283Z,1.90
2018-05-02T00:10:00.743Z,1.90
2018-05-02T00:12:28.193Z,1.80
2018-05-02T00:14:55.642Z,2.00
2018-05-02T00:17:23.097Z,2.00
2018-05-02T00:19:50.549Z,2.00
2018-05-02T00:22:18.856Z,2.00
2018-05-02T00:24:46.342Z,2.00
2018-05-02T00:27:13.807Z,2.00
2018-05-02T00:29:42.774Z,1.70
2018-05-02T00:32:10.218Z,2.00
2018-05-02T00:34:37.689Z,2.10
2018-05-02T00:37:05.136Z,1.83
2018-05-02T00:39:32.598Z,2.20
2018-05-02T00:42:00.044Z,2.40
2018-05-02T00:44:27.494Z,1.97
2018-05-02T00:46:54.961Z,1.87
2018-05-02T00:49:22.411Z,1.93
2018-05-02T00:51:49.861Z,2.00
2018-05-02T00:54:17.306Z,1.97
2018-05-02T00:56:45.527Z,1.83
2018-05-02T00:59:13.081Z,2.20
2018-05-02T01:01:40.561Z,2.10
2018-05-02T01:04:08.056Z,2.10
2018-05-02T01:06:35.513Z,1.83
2018-05-02T01:09:02.961Z,2.10
2018-05-02T01:11:31.181Z,2.00
2018-05-02T01:13:58.631Z,2.07
2018-05-02T01:16:26.087Z,2.20
2018-05-02T01:18:53.534Z,1.90
2018-05-02T01:21:20.986Z,1.87
2018-05-02T01:23:48.430Z,1.80
2018-05-02T01:26:15.879Z,2.30
2018-05-02T01:28:43.337Z,2.17
2018-05-02T01:31:11.574Z,2.20
2018-05-02T01:33:39.993Z,2.03
2018-05-02T01:36:08.775Z,2.03
2018-05-02T01:38:36.985Z,1.97
2018-05-02T01:41:04.434Z,2.07
2018-05-02T01:43:31.886Z,2.00
2018-05-02T01:45:59.345Z,2.13
2018-05-02T01:48:27.755Z,1.90
2018-05-02T01:50:55.205Z,1.90
2018-05-02T01:53:22.658Z,1.97
2018-05-02T01:55:50.106Z,2.00
2018-05-02T01:58:17.561Z,1.90
2018-05-02T02:00:45.025Z,1.97
2018-05-02T02:03:12.477Z,1.87
2018-05-02T02:05:39.932Z,2.00
2018-05-02T02:08:07.384Z,1.93
2018-05-02T02:10:34.845Z,2.00
2018-05-02T02:13:02.300Z,1.90
2018-05-02T02:15:29.747Z,1.87
2018-05-02T02:17:57.185Z,1.83
2018-05-02T02:20:25.409Z,1.90
2018-05-02T02:22:52.870Z,1.73
2018-05-02T02:25:20.377Z,2.03
2018-05-02T02:27:48.589Z,2.00
2018-05-02T02:30:16.039Z,1.73
2018-05-02T02:32:43.573Z,1.90
2018-05-02T02:35:10.954Z,1.60
2018-05-02T02:37:38.419Z,1.70
2018-05-02T02:40:05.877Z,2.03
2018-05-02T02:42:33.327Z,1.80
2018-05-02T02:45:00.786Z,1.80
2018-05-02T02:47:28.237Z,1.80
2018-05-02T02:49:55.752Z,2.00
2018-05-02T02:52:23.230Z,1.93
2018-05-02T02:54:51.454Z,1.67
2018-05-02T02:57:18.919Z,1.50
2018-05-02T02:59:46.396Z,1.97
2018-05-02T03:02:14.649Z,1.77
2018-05-02T03:04:42.430Z,1.63
2018-05-02T03:07:09.882Z,1.70
2018-05-02T03:09:37.348Z,1.90
2018-05-02T03:12:04.790Z,1.60
2018-05-02T03:14:32.241Z,1.80
2018-05-02T03:16:59.689Z,1.80
2018-05-02T03:19:27.128Z,1.67
2018-05-02T03:21:54.583Z,1.60
2018-05-02T03:24:22.038Z,2.00
2018-05-02T03:26:49.535Z,1.80
2018-05-02T03:29:16.942Z,1.70
2018-05-02T03:31:44.382Z,1.90
2018-05-02T03:34:11.836Z,1.60
2018-05-02T03:36:40.055Z,1.80
2018-05-02T03:39:07.504Z,1.73
2018-05-02T03:41:34.970Z,1.57
2018-05-02T03:44:02.406Z,1.70
2018-05-02T03:46:29.869Z,1.60
2018-05-02T03:48:57.309Z,1.70
2018-05-02T03:51:24.766Z,1.50
2018-05-02T03:53:53.402Z,1.70
2018-05-02T03:56:20.876Z,1.70
2018-05-02T03:58:48.326Z,1.80
2018-05-02T04:01:27.685Z,1.60
2018-05-02T04:04:07.801Z,1.67
2018-05-02T04:06:47.209Z,1.50
2018-05-02T04:09:14.673Z,1.70
2018-05-02T04:11:42.170Z,1.63
2018-05-02T04:14:09.692Z,1.60
2018-05-02T04:16:37.149Z,1.50
2018-05-02T04:19:04.594Z,1.60
2018-05-02T04:21:32.046Z,1.60
2018-05-02T04:23:59.500Z,1.60
2018-05-02T04:26:26.962Z,1.60
2018-05-02T04:28:54.458Z,1.60
2018-05-02T04:31:21.921Z,1.60
2018-05-02T04:33:49.386Z,1.60
2018-05-02T04:36:16.825Z,1.63
2018-05-02T04:38:44.277Z,1.63
2018-05-02T04:41:11.872Z,1.60
2018-05-02T04:43:39.200Z,1.80
2018-05-02T04:46:06.657Z,1.70
2018-05-02T04:48:34.091Z,1.53
2018-05-02T04:51:01.541Z,1.60
2018-05-02T04:53:28.997Z,1.60
2018-05-02T04:55:56.461Z,1.83
2018-05-02T04:58:23.928Z,1.60
2018-05-02T05:00:51.369Z,1.80
2018-05-02T05:03:18.818Z,1.67
2018-05-02T05:05:46.277Z,1.70
2018-05-02T05:08:13.726Z,1.80
2018-05-02T05:10:41.185Z,1.60
2018-05-02T05:13:08.647Z,1.57
2018-05-02T05:15:36.110Z,1.60
2018-05-02T05:18:03.577Z,1.80
2018-05-02T05:20:31.037Z,1.80
2018-05-02T05:22:58.497Z,1.57
2018-05-02T05:25:25.947Z,1.60
2018-05-02T05:27:53.409Z,1.70
2018-05-02T05:30:20.875Z,1.80
2018-05-02T05:32:48.349Z,1.80
2018-05-02T05:35:15.889Z,2.03
2018-05-02T05:37:43.254Z,1.90
2018-05-02T05:40:11.181Z,2.07
2018-05-02T05:42:38.639Z,1.80
2018-05-02T05:45:06.083Z,1.73
2018-05-02T05:47:33.577Z,1.80
2018-05-02T05:50:01.048Z,1.70
2018-05-02T05:52:28.514Z,1.80
2018-05-02T05:54:56.111Z,1.80
2018-05-02T05:57:23.549Z,1.70
2018-05-02T05:59:51.840Z,2.07
2018-05-02T06:02:19.307Z,1.73
2018-05-02T06:04:46.791Z,1.90
2018-05-02T06:07:14.253Z,1.90
2018-05-02T06:09:41.762Z,1.80
2018-05-02T06:12:09.999Z,1.90
2018-05-02T06:14:37.449Z,1.80
2018-05-02T06:17:04.915Z,2.00
2018-05-02T06:19:32.374Z,1.67
2018-05-02T06:22:02.706Z,1.90
2018-05-02T06:24:31.013Z,1.80
2018-05-02T06:27:00.188Z,3.23
2018-05-02T06:29:27.640Z,1.90
2018-05-02T06:31:55.104Z,2.00
2018-05-02T06:34:22.565Z,2.00
2018-05-02T06:36:50.782Z,2.37
2018-05-02T06:39:18.237Z,1.90
2018-05-02T06:41:46.322Z,1.97
2018-05-02T06:44:13.786Z,2.07
2018-05-02T06:46:41.239Z,2.10
2018-05-02T06:49:08.747Z,2.00
2018-05-02T06:51:36.145Z,2.10
2018-05-02T06:54:03.581Z,2.23
2018-05-02T06:56:31.024Z,2.10
2018-05-02T06:58:58.510Z,2.10
2018-05-02T07:01:25.957Z,2.00
2018-05-02T07:03:53.410Z,2.10
2018-05-02T07:06:20.860Z,2.20
2018-05-02T07:08:48.301Z,2.20
2018-05-02T07:11:16.527Z,2.50
2018-05-02T07:13:44.475Z,2.40
2018-05-02T07:16:12.656Z,2.30
2018-05-02T07:18:40.125Z,2.30
2018-05-02T07:21:07.615Z,2.33
2018-05-02T07:23:35.067Z,2.30
2018-05-02T07:26:05.519Z,2.20
2018-05-02T07:28:36.631Z,2.60
2018-05-02T07:31:04.080Z,2.27
2018-05-02T07:33:31.527Z,2.60
2018-05-02T07:35:58.998Z,2.47
2018-05-02T07:38:26.438Z,2.40
2018-05-02T07:40:53.900Z,2.30
2018-05-02T07:43:21.348Z,2.80
2018-05-02T07:45:48.795Z,2.80
2018-05-02T07:48:16.230Z,2.60
2018-05-02T07:50:43.686Z,2.80
2018-05-02T07:53:11.122Z,2.70
2018-05-02T07:55:39.340Z,2.33
2018-05-02T07:58:06.781Z,2.60
2018-05-02T08:00:34.253Z,2.67
2018-05-02T08:03:01.777Z,2.90
2018-05-02T08:05:30.088Z,2.50
2018-05-02T08:07:57.579Z,8.30
2018-05-02T08:10:25.031Z,2.57
2018-05-02T08:12:52.496Z,2.50
2018-05-02T08:15:19.945Z,2.70
2018-05-02T08:17:47.408Z,2.70
2018-05-02T08:20:14.874Z,2.60
2018-05-02T08:22:42.425Z,2.80
2018-05-02T08:25:09.944Z,2.50
2018-05-02T08:27:37.420Z,2.60
2018-05-02T08:30:04.865Z,2.30
2018-05-02T08:32:32.338Z,2.43
2018-05-02T08:34:59.782Z,2.73
2018-05-02T08:37:27.272Z,2.50
2018-05-02T08:39:54.732Z,2.40
2018-05-02T08:42:22.185Z,2.50
2018-05-02T08:44:49.638Z,2.47
2018-05-02T08:47:17.143Z,2.50
2018-05-02T08:49:44.608Z,2.60
2018-05-02T08:52:12.041Z,2.60
2018-05-02T08:54:40.260Z,2.73
2018-05-02T08:57:07.697Z,2.70
2018-05-02T08:59:35.165Z,2.57
2018-05-02T09:02:02.646Z,2.47
2018-05-02T09:04:30.133Z,2.50
2018-05-02T09:06:58.358Z,2.60
2018-05-02T09:09:25.798Z,2.80
2018-05-02T09:11:53.276Z,2.73
2018-05-02T09:14:20.752Z,3.00
2018-05-02T09:16:48.213Z,2.60
2018-05-02T09:19:15.689Z,2.73
2018-05-02T09:21:43.121Z,2.70
2018-05-02T09:24:10.582Z,3.00
2018-05-02T09:26:38.088Z,3.10
2018-05-02T09:29:05.545Z,2.90
2018-05-02T09:31:32.991Z,3.30
2018-05-02T09:34:01.205Z,3.20
2018-05-02T09:36:28.663Z,2.97
2018-05-02T09:38:56.106Z,3.10
2018-05-02T09:41:23.573Z,3.50
2018-05-02T09:43:51.021Z,3.10
2018-05-02T09:46:18.480Z,2.80
2018-05-02T09:48:45.937Z,3.17
2018-05-02T09:51:13.385Z,3.40
2018-05-02T09:53:40.844Z,3.10
2018-05-02T09:56:08.305Z,3.20
2018-05-02T09:58:35.757Z,3.37
2018-05-02T10:01:03.202Z,3.30
2018-05-02T10:03:30.676Z,3.37
2018-05-02T10:05:58.181Z,3.50
2018-05-02T10:08:25.634Z,3.23
2018-05-02T10:10:53.081Z,3.10
2018-05-02T10:13:20.533Z,3.90
2018-05-02T10:15:49.090Z,3.37
2018-05-02T10:18:16.967Z,3.47
2018-05-02T10:20:44.417Z,3.77
2018-05-02T10:23:11.894Z,3.47
2018-05-02T10:25:40.133Z,3.40
2018-05-02T10:28:07.607Z,3.70
2018-05-02T10:30:35.151Z,3.80
2018-05-02T10:33:02.596Z,3.70
2018-05-02T10:35:30.801Z,3.60
2018-05-02T10:37:58.247Z,3.50
2018-05-02T10:40:25.710Z,3.50
2018-05-02T10:42:53.157Z,3.60
2018-05-02T10:45:20.606Z,3.83
2018-05-02T10:47:48.064Z,3.87
2018-05-02T10:50:15.516Z,4.37
2018-05-02T10:52:42.969Z,4.13
2018-05-02T10:55:10.421Z,4.03
2018-05-02T10:57:39.885Z,4.23
2018-05-02T11:00:07.334Z,3.80
2018-05-02T11:02:34.790Z,3.90
2018-05-02T11:05:02.249Z,4.50
2018-05-02T11:07:29.701Z,4.20
2018-05-02T11:09:57.160Z,3.90
2018-05-02T11:12:24.609Z,3.70
2018-05-02T11:14:52.046Z,3.50
2018-05-02T11:17:19.493Z,3.90
2018-05-02T11:19:46.933Z,3.80
2018-05-02T11:22:15.157Z,4.20
2018-05-02T11:24:42.598Z,3.97
2018-05-02T11:27:10.050Z,4.20
2018-05-02T11:29:37.497Z,4.87
2018-05-02T11:32:04.945Z,4.47
2018-05-02T11:34:32.405Z,4.20
2018-05-02T11:36:59.875Z,4.37
2018-05-02T11:39:27.334Z,4.73
2018-05-02T11:41:54.773Z,4.43
2018-05-02T11:44:22.225Z,3.97
2018-05-02T11:46:50.443Z,4.40
2018-05-02T11:49:17.900Z,4.43
2018-05-02T11:51:46.001Z,4.53
2018-05-02T11:54:13.459Z,4.60
2018-05-02T11:56:40.905Z,5.03
2018-05-02T11:59:08.354Z,4.03
2018-05-02T12:01:35.799Z,4.33
2018-05-02T12:04:03.253Z,4.70
2018-05-02T12:06:30.703Z,4.97
2018-05-02T12:08:58.151Z,4.80
2018-05-02T12:11:25.601Z,4.87
2018-05-02T12:13:53.052Z,5.30
2018-05-02T12:16:20.505Z,5.23
2018-05-02T12:18:47.956Z,5.30
2018-05-02T12:21:16.182Z,5.10
2018-05-02T12:23:43.630Z,4.83
2018-05-02T12:26:11.634Z,5.50
2018-05-02T12:28:39.089Z,5.53
2018-05-02T12:31:06.541Z,5.80
2018-05-02T12:33:34.003Z,5.63
2018-05-02T12:36:01.459Z,6.27
2018-05-02T12:38:28.914Z,5.67
2018-05-02T12:40:56.415Z,5.73
2018-05-02T12:43:23.814Z,5.73
2018-05-02T12:45:51.278Z,6.13
2018-05-02T12:48:18.750Z,6.00
2018-05-02T12:50:46.194Z,5.30
2018-05-02T12:53:13.647Z,5.87
2018-05-02T12:55:41.100Z,6.00
2018-05-02T12:58:08.536Z,6.67
2018-05-02T13:00:35.993Z,6.10
2018-05-02T13:03:03.450Z,5.63
2018-05-02T13:05:30.916Z,5.50
2018-05-02T13:07:58.823Z,4.83
2018-05-02T13:10:26.311Z,4.90
2018-05-02T13:12:53.871Z,5.10
2018-05-02T13:15:21.326Z,6.00
2018-05-02T13:17:48.787Z,5.30
2018-05-02T13:20:16.246Z,4.90
2018-05-02T13:22:43.714Z,4.90
2018-05-02T13:25:11.181Z,5.47
2018-05-02T13:27:38.639Z,4.73
2018-05-02T13:30:06.086Z,5.10
2018-05-02T13:32:33.544Z,4.77
2018-05-02T13:35:01.001Z,4.87
2018-05-02T13:37:28.462Z,4.80
2018-05-02T13:39:55.901Z,4.83
2018-05-02T13:42:23.359Z,4.90
2018-05-02T13:44:50.812Z,4.73
2018-05-02T13:47:18.253Z,4.80
2018-05-02T13:49:45.711Z,4.83
2018-05-02T13:52:13.154Z,4.30
2018-05-02T13:54:41.377Z,4.53
2018-05-02T13:57:08.836Z,4.70
2018-05-02T13:59:36.277Z,4.47
2018-05-02T14:02:03.733Z,4.30
2018-05-02T14:04:31.188Z,4.23
2018-05-02T14:06:58.647Z,3.90
2018-05-02T14:09:26.098Z,3.80
2018-05-02T14:11:53.556Z,4.10
2018-05-02T14:14:21.022Z,4.10
2018-05-02T14:16:48.473Z,3.87
2018-05-02T14:19:15.914Z,4.10
2018-05-02T14:21:43.369Z,4.47
2018-05-02T14:24:10.818Z,3.93
2018-05-02T14:26:39.026Z,3.97
2018-05-02T14:29:06.481Z,3.80
2018-05-02T14:31:33.934Z,4.07
2018-05-02T14:34:01.393Z,4.30
2018-05-02T14:36:28.881Z,3.87
2018-05-02T14:38:56.319Z,4.00
2018-05-02T14:41:23.802Z,3.87
2018-05-02T14:43:51.250Z,4.03
2018-05-02T14:46:18.694Z,3.83
2018-05-02T14:48:46.149Z,3.80
2018-05-02T14:51:13.615Z,3.80
2018-05-02T14:53:41.053Z,3.90
2018-05-02T14:56:08.512Z,3.40
2018-05-02T14:58:35.968Z,3.40
2018-05-02T15:01:03.411Z,3.47
2018-05-02T15:03:30.859Z,3.50
2018-05-02T15:05:58.308Z,3.40
2018-05-02T15:08:32.957Z,3.63
2018-05-02T15:11:00.414Z,4.20
2018-05-02T15:13:27.856Z,3.90
2018-05-02T15:15:55.303Z,3.47
2018-05-02T15:18:23.519Z,3.50
2018-05-02T15:20:50.967Z,3.77
2018-05-02T15:23:18.417Z,3.30
2018-05-02T15:25:45.880Z,3.67
2018-05-02T15:28:13.330Z,3.63
2018-05-02T15:30:40.780Z,3.53
2018-05-02T15:33:08.229Z,3.50
2018-05-02T15:35:35.684Z,3.67
2018-05-02T15:38:03.129Z,3.20
2018-05-02T15:40:31.349Z,3.67
2018-05-02T15:42:58.798Z,3.47
2018-05-02T15:45:26.236Z,3.27
2018-05-02T15:47:53.692Z,3.27
2018-05-02T15:50:21.138Z,3.20
2018-05-02T15:52:48.594Z,3.43
2018-05-02T15:55:16.810Z,3.33
2018-05-02T15:57:44.261Z,3.10
2018-05-02T16:00:11.702Z,3.10
2018-05-02T16:02:39.147Z,3.70
2018-05-02T16:05:06.602Z,3.33
2018-05-02T16:07:34.062Z,3.03
2018-05-02T16:10:01.542Z,3.50
2018-05-02T16:12:28.989Z,3.43
2018-05-02T16:14:56.433Z,3.60
2018-05-02T16:17:23.874Z,3.53
2018-05-02T16:19:51.331Z,3.30
2018-05-02T16:22:19.541Z,3.70
2018-05-02T16:24:46.999Z,3.40
2018-05-02T16:27:14.446Z,3.90
2018-05-02T16:29:41.901Z,3.87
2018-05-02T16:32:09.352Z,3.13
2018-05-02T16:34:36.798Z,3.73
2018-05-02T16:37:04.242Z,3.10
2018-05-02T16:39:32.452Z,2.60
2018-05-02T16:41:59.893Z,3.17
2018-05-02T16:44:27.350Z,3.00
2018-05-02T16:46:54.818Z,3.03
2018-05-02T16:49:22.263Z,3.33
2018-05-02T16:51:49.714Z,3.07
2018-05-02T16:54:17.161Z,3.13
2018-05-02T16:56:45.394Z,3.37
2018-05-02T16:59:12.830Z,3.00
2018-05-02T17:01:40.294Z,3.10
2018-05-02T17:04:07.797Z,2.83
2018-05-02T17:06:35.214Z,3.20
2018-05-02T17:09:02.667Z,3.50
2018-05-02T17:11:30.122Z,3.43
2018-05-02T17:13:57.606Z,3.53
2018-05-02T17:16:25.029Z,3.37
2018-05-02T17:18:52.486Z,3.87
2018-05-02T17:21:19.928Z,4.03
2018-05-02T17:23:47.374Z,3.93
2018-05-02T17:26:14.843Z,3.47
2018-05-02T17:28:42.292Z,3.93
2018-05-02T17:31:09.759Z,3.83
2018-05-02T17:33:37.196Z,4.10
2018-05-02T17:36:04.664Z,4.07
2018-05-02T17:38:32.093Z,4.30
2018-05-02T17:41:00.321Z,3.70
2018-05-02T17:43:27.770Z,3.87
2018-05-02T17:45:55.216Z,3.90
2018-05-02T17:48:22.697Z,3.90
2018-05-02T17:50:50.142Z,4.10
2018-05-02T17:53:17.631Z,4.13
2018-05-02T17:55:45.088Z,3.83
2018-05-02T17:58:12.530Z,3.77
2018-05-02T18:00:39.984Z,4.17
2018-05-02T18:03:07.446Z,4.13
2018-05-02T18:05:34.945Z,4.13
2018-05-02T18:08:02.338Z,3.80
2018-05-02T18:10:29.904Z,4.00
2018-05-02T18:12:57.302Z,3.80
2018-05-02T18:15:24.806Z,3.73
2018-05-02T18:17:52.266Z,3.90
2018-05-02T18:20:19.744Z,4.00
2018-05-02T18:22:47.274Z,3.90
2018-05-02T18:25:14.677Z,3.80
2018-05-02T18:27:42.120Z,4.10
2018-05-02T18:30:09.585Z,3.70
2018-05-02T18:32:37.032Z,3.87
2018-05-02T18:35:04.482Z,4.10
2018-05-02T18:37:31.925Z,4.10
2018-05-02T18:39:59.374Z,4.37
2018-05-02T18:42:26.817Z,4.10
2018-05-02T18:44:54.275Z,3.90
2018-05-02T18:47:21.719Z,4.10
2018-05-02T18:49:49.934Z,4.10
2018-05-02T18:52:17.381Z,4.20
2018-05-02T18:54:44.896Z,3.73
2018-05-02T18:57:12.326Z,4.37
2018-05-02T18:59:39.800Z,4.27
2018-05-02T19:02:07.246Z,4.23
2018-05-02T19:04:34.691Z,4.10
2018-05-02T19:07:02.153Z,3.93
2018-05-02T19:09:29.590Z,3.90
2018-05-02T19:11:57.050Z,4.10
2018-05-02T19:14:24.505Z,4.53
2018-05-02T19:16:51.947Z,4.00
2018-05-02T19:19:25.020Z,4.27
2018-05-02T19:21:52.474Z,4.00
2018-05-02T19:24:19.922Z,4.07
2018-05-02T19:26:48.141Z,4.07
2018-05-02T19:29:15.610Z,3.83
2018-05-02T19:31:48.841Z,4.20
2018-05-02T19:34:17.057Z,4.10
2018-05-02T19:36:44.548Z,4.57
2018-05-02T19:39:12.017Z,4.30
2018-05-02T19:41:45.167Z,4.57
2018-05-02T19:44:12.661Z,4.80
2018-05-02T19:46:40.102Z,4.60
2018-05-02T19:49:07.592Z,4.53
2018-05-02T19:51:40.662Z,4.60
2018-05-02T19:54:08.115Z,4.87
2018-05-02T19:56:35.587Z,4.70
2018-05-02T19:59:03.802Z,4.97
2018-05-02T20:01:37.000Z,5.00
2018-05-02T20:04:04.449Z,5.30
2018-05-02T20:06:31.898Z,5.40
2018-05-02T20:09:05.044Z,5.63
2018-05-02T20:11:38.140Z,5.00
2018-05-02T20:14:07.563Z,5.03
2018-05-02T20:16:35.781Z,5.40
2018-05-02T20:19:03.297Z,5.33
2018-05-02T20:21:30.716Z,5.23
2018-05-02T20:23:58.166Z,4.73
2018-05-02T20:26:25.613Z,5.20
2018-05-02T20:28:53.063Z,5.27
2018-05-02T20:31:20.530Z,4.90
2018-05-02T20:33:48.018Z,4.40
2018-05-02T20:36:15.485Z,5.33
2018-05-02T20:38:43.737Z,4.90
2018-05-02T20:41:11.241Z,4.83
2018-05-02T20:43:38.730Z,5.20
2018-05-02T20:46:06.175Z,4.80
2018-05-02T20:48:33.652Z,4.97
2018-05-02T20:51:01.119Z,4.90
2018-05-02T20:53:28.572Z,4.30
2018-05-02T20:55:56.011Z,4.43
2018-05-02T20:58:23.470Z,4.53
2018-05-02T21:00:50.934Z,4.50
2018-05-02T21:03:18.404Z,4.70
2018-05-02T21:05:45.905Z,4.50
2018-05-02T21:08:14.159Z,4.43
2018-05-02T21:10:42.386Z,4.57
2018-05-02T21:13:09.827Z,4.13
2018-05-02T21:15:37.274Z,4.47
2018-05-02T21:18:05.301Z,4.63
2018-05-02T21:20:33.551Z,4.73
2018-05-02T21:23:01.051Z,4.00
2018-05-02T21:25:29.313Z,4.30
2018-05-02T21:27:56.762Z,4.30
2018-05-02T21:30:24.210Z,4.50
2018-05-02T21:32:51.701Z,4.37
2018-05-02T21:35:19.220Z,4.43
2018-05-02T21:37:46.702Z,4.63
2018-05-02T21:40:14.156Z,4.87
2018-05-02T21:42:41.638Z,5.00
2018-05-02T21:45:09.878Z,5.00
2018-05-02T21:47:37.324Z,5.20
2018-05-02T21:50:04.782Z,4.90
2018-05-02T21:52:33.018Z,5.00
2018-05-02T21:55:00.458Z,5.30
2018-05-02T21:57:28.674Z,5.33
2018-05-02T21:59:56.134Z,5.83
2018-05-02T22:02:23.582Z,5.40
2018-05-02T22:04:51.025Z,5.30
2018-05-02T22:07:18.534Z,5.37
2018-05-02T22:09:45.979Z,5.20
2018-05-02T22:12:13.421Z,5.53
2018-05-02T22:14:40.861Z,5.70
2018-05-02T22:17:08.314Z,5.70
2018-05-02T22:19:35.774Z,5.37
2018-05-02T22:22:03.227Z,5.47
2018-05-02T22:24:30.763Z,5.20
2018-05-02T22:26:58.981Z,5.33
2018-05-02T22:29:26.441Z,5.63
2018-05-02T22:31:53.886Z,5.80
2018-05-02T22:34:21.344Z,5.23
2018-05-02T22:36:48.786Z,5.33
2018-05-02T22:39:16.233Z,5.47
2018-05-02T22:41:43.685Z,5.83
2018-05-02T22:44:11.897Z,5.53
2018-05-02T22:46:39.376Z,5.30
2018-05-02T22:49:06.870Z,5.13
2018-05-02T22:51:35.072Z,5.77
2018-05-02T22:54:02.542Z,6.00
2018-05-02T22:56:30.037Z,5.97
2018-05-02T22:58:57.502Z,5.57
2018-05-02T23:01:24.943Z,6.13
2018-05-02T23:03:52.386Z,6.07
2018-05-02T23:06:19.834Z,5.77
2018-05-02T23:08:47.278Z,6.10
2018-05-02T23:11:14.728Z,6.10
2018-05-02T23:13:42.182Z,5.73
2018-05-02T23:16:09.626Z,5.77
2018-05-02T23:18:37.081Z,6.00
2018-05-02T23:21:04.530Z,5.90
2018-05-02T23:23:32.732Z,6.23
2018-05-02T23:26:00.193Z,6.00
2018-05-02T23:28:27.633Z,6.40
2018-05-02T23:30:55.090Z,6.83
2018-05-02T23:33:22.531Z,6.20
2018-05-02T23:35:50.736Z,6.40
2018-05-02T23:38:18.187Z,6.73
2018-05-02T23:40:45.632Z,6.97
2018-05-02T23:43:13.077Z,6.60
2018-05-02T23:45:40.543Z,6.60
2018-05-02T23:48:07.991Z,6.73
2018-05-02T23:50:36.215Z,6.73
2018-05-02T23:53:03.665Z,6.47
2018-05-02T23:55:31.887Z,6.80
2018-05-02T23:58:00.100Z,6.90
